Time;durP1;ratioP1;P1;durP2;ratioP2;P2;SDS_P1;SDS_P2;PMS_P1;PMS_P2;Temp;Humidity;BMP_temperature;BMP_pressure;BME280_temperature;BME280_humidity;BME280_pressure;Samples;Min_cycle;Max_cycle;Signal;HPM_P1;HPM_P2
2022/04/18 00:02:09;;;;;;;2.00;1.90;;;5.70;90.80;;;;;;5034869;28;20922;-71
2022/04/18 00:04:35;;;;;;;2.90;2.70;;;5.70;91.20;;;;;;5034136;28;20673;-71
2022/04/18 00:07:02;;;;;;;2.40;2.20;;;5.70;91.30;;;;;;5034440;28;20253;-71
2022/04/18 00:09:30;;;;;;;2.20;2.05;;;5.60;91.50;;;;;;5034411;28;20261;-71
2022/04/18 00:11:56;;;;;;;2.67;2.47;;;5.50;91.80;;;;;;5034488;28;20194;-70
2022/04/18 00:14:23;;;;;;;2.40;2.30;;;5.50;92.20;;;;;;5032984;28;20519;-70
2022/04/18 00:16:49;;;;;;;4.10;2.03;;;5.40;92.60;;;;;;5034581;28;20276;-71
2022/04/18 00:19:14;;;;;;;3.97;2.50;;;5.40;92.90;;;;;;5034452;28;20205;-71
2022/04/18 00:21:40;;;;;;;2.17;2.07;;;5.40;93.20;;;;;;5034269;28;20237;-71
2022/04/18 00:24:06;;;;;;;2.63;2.33;;;5.40;93.70;;;;;;5066053;28;20239;-68
2022/04/18 00:26:31;;;;;;;2.90;2.60;;;5.40;94.10;;;;;;5034285;28;20518;-71
2022/04/18 00:28:57;;;;;;;2.60;2.40;;;5.30;94.50;;;;;;5034337;28;20209;-71
2022/04/18 00:31:23;;;;;;;1.70;1.60;;;5.30;94.70;;;;;;5034260;28;20181;-71
2022/04/18 00:33:48;;;;;;;2.63;2.47;;;5.30;95.30;;;;;;5033882;28;20208;-71
2022/04/18 00:36:14;;;;;;;2.03;1.93;;;5.20;95.60;;;;;;5033907;28;20189;-71
2022/04/18 00:38:40;;;;;;;2.43;2.23;;;5.20;96.10;;;;;;5034203;28;20188;-71
2022/04/18 00:41:06;;;;;;;1.90;1.80;;;5.20;96.50;;;;;;5034132;28;20527;-71
2022/04/18 00:43:38;;;;;;;2.90;2.20;;;5.20;96.70;;;;;;5033684;28;20198;-71
2022/04/18 00:46:04;;;;;;;1.92;1.83;;;5.10;96.60;;;;;;5034264;28;20182;-71
2022/04/18 00:48:30;;;;;;;2.93;2.63;;;5.20;97.10;;;;;;5034125;28;20262;-70
2022/04/18 00:50:55;;;;;;;3.20;2.80;;;5.10;97.50;;;;;;5033853;28;20636;-70
2022/04/18 00:53:21;;;;;;;2.83;2.40;;;5.00;97.60;;;;;;5033391;28;20244;-70
2022/04/18 00:55:47;;;;;;;1.90;1.80;;;5.10;97.80;;;;;;5033763;28;20232;-70
2022/04/18 00:58:14;;;;;;;1.88;1.70;;;5.00;98.10;;;;;;5033952;28;20420;-71
2022/04/18 01:00:40;;;;;;;3.65;2.28;;;5.00;98.20;;;;;;5033942;28;20181;-70
2022/04/18 01:03:05;;;;;;;2.30;2.20;;;5.00;98.70;;;;;;5033385;28;20672;-71
2022/04/18 01:05:33;;;;;;;3.00;2.80;;;4.90;99.00;;;;;;5033400;28;20194;-71
2022/04/18 01:07:59;;;;;;;1.98;1.88;;;4.90;99.30;;;;;;5033271;28;20178;-70
2022/04/18 01:10:24;;;;;;;5.30;2.65;;;4.90;99.50;;;;;;5033535;28;20203;-70
2022/04/18 01:12:50;;;;;;;3.27;1.90;;;4.90;99.50;;;;;;5033697;28;20285;-70
2022/04/18 01:15:16;;;;;;;3.50;3.00;;;4.90;99.60;;;;;;5031898;28;20265;-70
2022/04/18 01:17:41;;;;;;;5.90;2.50;;;4.80;99.80;;;;;;5033570;28;20166;-70
2022/04/18 01:20:07;;;;;;;3.10;2.90;;;4.80;99.90;;;;;;5033153;28;20167;-70
2022/04/18 01:22:35;;;;;;;2.33;2.13;;;4.80;99.90;;;;;;5033372;28;20572;-71
2022/04/18 01:30:29;;;;;;;5.88;1.83;;;4.70;99.90;;;;;;5033871;28;20548;-71
2022/04/18 01:32:55;;;;;;;4.03;2.53;;;4.60;99.90;;;;;;5033245;28;20193;-69
2022/04/18 01:35:20;;;;;;;2.07;1.97;;;4.60;99.90;;;;;;5032691;28;20201;-70
2022/04/18 01:37:46;;;;;;;1.80;1.70;;;4.50;99.90;;;;;;5033241;28;20249;-70
2022/04/18 01:40:11;;;;;;;1.70;1.60;;;4.40;99.90;;;;;;5032995;28;20737;-69
2022/04/18 01:42:37;;;;;;;1.77;1.67;;;4.40;99.90;;;;;;5033238;28;20256;-71
2022/04/18 01:45:04;;;;;;;1.53;1.43;;;4.40;99.90;;;;;;5032800;28;20269;-70
2022/04/18 01:47:29;;;;;;;2.20;1.95;;;4.40;99.90;;;;;;5033340;28;20204;-71
2022/04/18 01:49:55;;;;;;;2.77;2.53;;;4.40;99.90;;;;;;5031703;28;20178;-70
2022/04/18 01:52:21;;;;;;;2.50;2.30;;;4.40;99.90;;;;;;5033357;28;20202;-70
2022/04/18 01:54:46;;;;;;;2.90;2.10;;;4.40;99.90;;;;;;5032768;28;20708;-70
2022/04/18 01:57:12;;;;;;;2.73;2.47;;;4.40;99.90;;;;;;5033269;28;20177;-71
2022/04/18 01:59:37;;;;;;;2.50;2.40;;;4.40;99.90;;;;;;5033238;28;20522;-72
2022/04/18 02:02:03;;;;;;;2.00;1.73;;;4.30;99.90;;;;;;5033093;28;20170;-71
2022/04/18 02:04:29;;;;;;;2.53;2.33;;;4.30;99.90;;;;;;5032195;28;20283;-70
2022/04/18 02:06:54;;;;;;;2.53;2.30;;;4.30;99.90;;;;;;5032693;28;20190;-71
2022/04/18 02:09:20;;;;;;;2.73;2.37;;;4.30;99.90;;;;;;5033001;28;20178;-71
2022/04/18 02:11:46;;;;;;;3.97;2.67;;;4.20;99.90;;;;;;5032962;28;20190;-70
2022/04/18 02:14:11;;;;;;;2.20;2.10;;;4.20;99.90;;;;;;5032548;28;20170;-71
2022/04/18 02:16:37;;;;;;;2.00;1.90;;;4.20;99.90;;;;;;5032766;28;20193;-71
2022/04/18 02:19:02;;;;;;;4.40;2.40;;;4.10;99.90;;;;;;5034098;28;20182;-70
2022/04/18 02:21:28;;;;;;;4.00;2.90;;;4.10;99.90;;;;;;5036636;28;20178;-70
2022/04/18 02:23:54;;;;;;;1.53;1.43;;;4.00;99.90;;;;;;5036451;28;20201;-70
2022/04/18 02:26:19;;;;;;;1.47;1.37;;;4.00;99.90;;;;;;5036744;28;20208;-71
2022/04/18 02:28:45;;;;;;;2.90;2.70;;;3.80;99.90;;;;;;5035326;28;20174;-69
2022/04/18 02:31:11;;;;;;;3.07;2.77;;;3.80;99.90;;;;;;5036623;28;20170;-70
2022/04/18 02:33:36;;;;;;;2.63;2.43;;;3.70;99.90;;;;;;5035743;28;20194;-70
2022/04/18 02:36:02;;;;;;;2.70;2.50;;;3.70;99.90;;;;;;5036442;28;20656;-70
2022/04/18 02:38:28;;;;;;;1.80;1.70;;;3.70;99.90;;;;;;5036425;28;20633;-70
2022/04/18 02:40:54;;;;;;;3.22;2.70;;;3.60;99.90;;;;;;5036530;28;20169;-70
2022/04/18 02:43:19;;;;;;;2.67;2.47;;;3.60;99.90;;;;;;5035976;28;20170;-70
2022/04/18 02:45:45;;;;;;;2.87;2.70;;;3.60;99.90;;;;;;5036233;28;20193;-70
2022/04/18 02:48:11;;;;;;;3.50;2.63;;;3.50;99.90;;;;;;5036480;28;20506;-71
2022/04/18 02:50:37;;;;;;;1.95;1.60;;;3.50;99.90;;;;;;5036203;28;20173;-69
2022/04/18 02:53:05;;;;;;;2.70;2.50;;;3.50;99.90;;;;;;5035994;28;20587;-71
2022/04/18 02:55:31;;;;;;;2.80;2.60;;;3.50;99.90;;;;;;5035836;28;20834;-70
2022/04/18 02:57:56;;;;;;;2.57;2.47;;;3.50;99.90;;;;;;5036170;28;20202;-70
2022/04/18 03:00:22;;;;;;;2.53;2.37;;;3.50;99.90;;;;;;5036125;28;20205;-71
2022/04/18 03:02:48;;;;;;;1.70;1.70;;;3.40;99.90;;;;;;5035382;28;20190;-71
2022/04/18 03:05:13;;;;;;;2.70;2.60;;;3.40;99.90;;;;;;5035729;28;20592;-71
2022/04/18 03:07:39;;;;;;;1.90;1.60;;;3.40;99.90;;;;;;5036145;28;20249;-71
2022/04/18 03:10:06;;;;;;;3.33;2.28;;;3.40;99.90;;;;;;5035996;28;20223;-70
2022/04/18 03:12:32;;;;;;;2.08;1.98;;;3.50;99.90;;;;;;5035721;28;20197;-70
2022/04/18 03:14:57;;;;;;;3.10;2.30;;;3.40;99.90;;;;;;5035253;28;20664;-70
2022/04/18 03:17:23;;;;;;;2.90;2.70;;;3.50;99.90;;;;;;5035683;28;20402;-70
2022/04/18 03:19:50;;;;;;;2.27;2.17;;;3.50;99.90;;;;;;5035605;28;20174;-71
2022/04/18 03:22:15;;;;;;;2.58;2.47;;;3.50;99.90;;;;;;5034344;28;20664;-70
2022/04/18 03:24:41;;;;;;;2.00;1.80;;;3.40;99.90;;;;;;5035365;28;20174;-69
2022/04/18 03:27:07;;;;;;;2.50;2.30;;;3.40;99.90;;;;;;5035279;28;20186;-71
2022/04/18 03:29:33;;;;;;;2.15;1.77;;;3.40;99.90;;;;;;5034908;28;20621;-71
2022/04/18 03:31:59;;;;;;;2.27;2.17;;;3.40;99.90;;;;;;5034617;28;20202;-71
2022/04/18 03:34:25;;;;;;;2.53;1.90;;;3.40;99.90;;;;;;5035089;28;20815;-71
2022/04/18 03:39:51;;;;;;;2.92;2.65;;;3.50;99.90;;;;;;5035444;28;20173;-70
2022/04/18 03:42:29;;;;;;;3.33;1.92;;;3.50;99.90;;;;;;5035052;28;20256;-71
2022/04/18 03:45:00;;;;;;;2.15;2.05;;;3.40;99.90;;;;;;5034785;28;20209;-70
2022/04/18 03:47:27;;;;;;;2.92;2.45;;;3.40;99.90;;;;;;5035414;28;20506;-70
2022/04/18 03:49:53;;;;;;;2.67;2.20;;;3.40;99.90;;;;;;5035320;28;20182;-69
2022/04/18 03:52:19;;;;;;;3.25;2.75;;;3.40;99.90;;;;;;5034915;28;20198;-69
2022/04/18 03:54:46;;;;;;;2.97;2.78;;;3.30;99.90;;;;;;5034534;28;20190;-69
2022/04/18 03:57:12;;;;;;;2.25;1.90;;;3.30;99.90;;;;;;5035097;28;20158;-70
2022/04/18 03:59:38;;;;;;;1.65;1.55;;;3.30;99.90;;;;;;5034894;28;20167;-70
2022/04/18 04:02:04;;;;;;;4.60;2.00;;;3.20;99.90;;;;;;5035459;28;20652;-70
2022/04/18 04:04:30;;;;;;;1.38;1.38;;;3.20;99.90;;;;;;5034979;28;20186;-70
2022/04/18 04:06:55;;;;;;;2.57;2.30;;;3.20;99.90;;;;;;5037854;28;20189;-71
2022/04/18 04:09:21;;;;;;;4.40;2.80;;;3.10;99.90;;;;;;5037432;28;20174;-70
2022/04/18 04:11:47;;;;;;;2.75;2.55;;;3.10;99.90;;;;;;5035273;28;20202;-70
2022/04/18 04:14:13;;;;;;;2.47;2.35;;;3.00;99.90;;;;;;5034649;28;20162;-70
2022/04/18 04:16:39;;;;;;;3.40;1.87;;;2.90;99.90;;;;;;5034731;28;20188;-70
2022/04/18 04:19:05;;;;;;;2.97;2.23;;;2.90;99.90;;;;;;5034735;28;20405;-70
2022/04/18 04:21:31;;;;;;;2.33;2.13;;;2.80;99.90;;;;;;5033112;28;20649;-70
2022/04/18 04:23:57;;;;;;;2.28;2.17;;;2.80;99.90;;;;;;5035277;28;20228;-70
2022/04/18 04:26:22;;;;;;;2.50;2.30;;;2.70;99.90;;;;;;5035851;28;20190;-70
2022/04/18 04:28:48;;;;;;;2.33;1.93;;;2.70;99.90;;;;;;5036187;28;20208;-70
2022/04/18 04:31:14;;;;;;;3.47;2.03;;;2.70;99.90;;;;;;5036132;28;20253;-70
2022/04/18 04:33:40;;;;;;;4.10;3.37;;;2.60;99.90;;;;;;5034041;28;20460;-70
2022/04/18 04:36:06;;;;;;;2.60;1.80;;;2.60;99.90;;;;;;5035682;28;20448;-70
2022/04/18 04:38:32;;;;;;;2.40;1.92;;;2.70;99.90;;;;;;5034224;28;20158;-71
2022/04/18 04:40:58;;;;;;;2.50;2.13;;;2.70;99.90;;;;;;5033976;28;20682;-70
2022/04/18 04:43:29;;;;;;;1.67;1.57;;;2.70;99.90;;;;;;5033804;28;20170;-71
2022/04/18 04:45:56;;;;;;;2.10;1.95;;;2.80;99.90;;;;;;5034160;28;20444;-71
2022/04/18 04:48:22;;;;;;;1.85;1.35;;;2.90;99.90;;;;;;5034070;28;20170;-70
2022/04/18 04:50:48;;;;;;;2.10;1.98;;;3.00;99.90;;;;;;5033715;28;20328;-69
2022/04/18 04:53:13;;;;;;;2.67;2.47;;;3.20;99.90;;;;;;5033654;28;20296;-70
2022/04/18 04:55:39;;;;;;;3.57;2.87;;;3.50;99.90;;;;;;5033994;28;20186;-70
2022/04/18 04:58:05;;;;;;;6.47;3.10;;;3.80;99.90;;;;;;5034035;28;20170;-71
2022/04/18 05:00:31;;;;;;;3.73;3.43;;;4.10;99.90;;;;;;5034080;28;20177;-71
2022/04/18 05:02:57;;;;;;;1.95;1.80;;;4.30;99.90;;;;;;5033786;28;20596;-71
2022/04/18 05:05:23;;;;;;;2.73;2.53;;;4.50;99.90;;;;;;5033500;28;20190;-70
2022/04/18 05:07:49;;;;;;;2.65;2.45;;;4.90;99.90;;;;;;5033851;28;20189;-70
2022/04/18 05:10:15;;;;;;;2.45;2.22;;;5.20;99.90;;;;;;5033624;28;20163;-70
2022/04/18 05:12:41;;;;;;;2.73;2.53;;;5.30;99.90;;;;;;5033203;28;20542;-71
2022/04/18 05:15:07;;;;;;;2.28;2.17;;;5.40;99.90;;;;;;5033149;28;20936;-71
2022/04/18 05:17:33;;;;;;;2.90;2.70;;;5.70;99.90;;;;;;5033656;28;20219;-71
2022/04/18 05:19:59;;;;;;;2.40;2.20;;;6.10;99.90;;;;;;5032633;28;20588;-71
2022/04/18 05:22:25;;;;;;;2.55;2.05;;;6.40;99.90;;;;;;5030814;28;20700;-72
2022/04/18 05:24:51;;;;;;;3.40;2.63;;;6.80;99.90;;;;;;5021749;28;20278;-69
2022/04/18 05:27:17;;;;;;;2.40;2.20;;;7.00;99.50;;;;;;5026721;28;20174;-71
2022/04/18 05:29:44;;;;;;;2.60;2.40;;;7.10;98.80;;;;;;5024481;28;20179;-71
2022/04/18 05:32:10;;;;;;;2.05;1.95;;;7.20;98.40;;;;;;5029565;28;20201;-71
2022/04/18 05:34:36;;;;;;;2.03;1.92;;;7.40;97.80;;;;;;5032634;28;20204;-71
2022/04/18 05:37:02;;;;;;;2.70;2.30;;;7.50;97.20;;;;;;5033152;28;20249;-71
2022/04/18 05:39:28;;;;;;;2.83;1.97;;;7.80;97.00;;;;;;5033176;28;20166;-71
2022/04/18 05:41:53;;;;;;;2.37;2.17;;;8.20;96.30;;;;;;5031870;28;20170;-70
2022/04/18 05:44:19;;;;;;;3.53;3.23;;;8.40;94.70;;;;;;5032867;28;20170;-71
2022/04/18 05:46:45;;;;;;;2.30;2.10;;;8.40;93.60;;;;;;5031418;28;20561;-69
2022/04/18 05:49:11;;;;;;;2.65;2.40;;;8.30;93.50;;;;;;5031776;28;20536;-70
2022/04/18 05:51:38;;;;;;;2.50;1.87;;;8.30;93.50;;;;;;5032989;28;20174;-71
2022/04/18 05:54:04;;;;;;;1.90;1.80;;;8.20;93.30;;;;;;5033113;28;20174;-72
2022/04/18 05:56:30;;;;;;;4.80;2.20;;;8.30;93.30;;;;;;5037120;28;20181;-71
2022/04/18 05:58:56;;;;;;;2.65;2.08;;;8.50;93.00;;;;;;5037012;28;20399;-70
2022/04/18 06:01:22;;;;;;;2.28;2.08;;;9.00;92.10;;;;;;5036617;28;20174;-70
2022/04/18 06:03:48;;;;;;;2.17;2.07;;;9.50;91.30;;;;;;5036310;28;20178;-71
2022/04/18 06:06:14;;;;;;;5.93;1.60;;;9.80;91.00;;;;;;5035516;28;20236;-71
2022/04/18 06:08:40;;;;;;;2.40;2.30;;;9.90;89.40;;;;;;5036957;28;20405;-72
2022/04/18 06:11:06;;;;;;;2.40;2.20;;;10.10;85.70;;;;;;5036959;28;20166;-68
2022/04/18 06:13:32;;;;;;;2.37;2.03;;;10.30;83.80;;;;;;5036498;28;20839;-70
2022/04/18 06:15:58;;;;;;;3.50;2.47;;;10.40;82.60;;;;;;5036581;28;20703;-70
2022/04/18 06:18:23;;;;;;;2.70;2.50;;;10.40;83.20;;;;;;5036719;28;20485;-70
2022/04/18 06:20:49;;;;;;;2.30;2.20;;;10.50;82.30;;;;;;5036835;28;20313;-73
2022/04/18 06:23:18;;;;;;;2.30;2.20;;;10.50;81.90;;;;;;5036104;28;20190;-72
2022/04/18 06:25:44;;;;;;;2.42;2.22;;;10.50;81.00;;;;;;5036544;28;20564;-71
2022/04/18 06:28:12;;;;;;;4.73;2.97;;;10.50;80.40;;;;;;5035010;28;20265;-71
2022/04/18 06:30:38;;;;;;;4.15;2.05;;;10.50;80.30;;;;;;5036251;28;20185;-70
2022/04/18 06:33:04;;;;;;;3.17;2.88;;;10.70;79.50;;;;;;5036035;28;20194;-72
2022/04/18 06:35:30;;;;;;;2.10;2.00;;;10.90;79.70;;;;;;5036409;28;20193;-71
2022/04/18 06:37:55;;;;;;;2.47;2.27;;;11.00;78.20;;;;;;5036444;28;20629;-70
2022/04/18 06:40:21;;;;;;;1.73;1.63;;;11.10;78.20;;;;;;5034139;28;20171;-74
2022/04/18 06:42:47;;;;;;;3.33;3.13;;;11.10;78.70;;;;;;5030823;28;20456;-71
2022/04/18 06:45:12;;;;;;;2.23;1.80;;;11.20;77.50;;;;;;5035474;28;20230;-73
2022/04/18 06:47:38;;;;;;;2.37;2.17;;;11.30;76.60;;;;;;5035978;28;20228;-74
2022/04/18 06:50:10;;;;;;;2.07;1.97;;;11.20;76.70;;;;;;5034505;28;20508;-72
2022/04/18 06:52:39;;;;;;;2.00;1.90;;;11.20;76.70;;;;;;5035996;28;20715;-71
2022/04/18 06:55:07;;;;;;;3.30;2.30;;;11.30;77.40;;;;;;5032617;28;20199;-70
2022/04/18 06:57:32;;;;;;;2.70;2.50;;;11.60;77.30;;;;;;5035849;28;20168;-73
2022/04/18 06:59:58;;;;;;;2.70;2.50;;;11.90;75.80;;;;;;5035954;28;20175;-72
2022/04/18 07:02:23;;;;;;;2.67;2.03;;;12.20;74.40;;;;;;5035566;28;20647;-73
2022/04/18 07:04:49;;;;;;;2.67;2.47;;;12.50;73.40;;;;;;5035176;28;20259;-73
2022/04/18 07:07:15;;;;;;;2.30;2.10;;;13.00;73.10;;;;;;5034657;28;20234;-73
2022/04/18 07:09:41;;;;;;;3.17;2.40;;;13.40;70.80;;;;;;5035604;28;20923;-72
2022/04/18 07:12:07;;;;;;;3.73;1.77;;;13.90;68.00;;;;;;5034547;28;20202;-74
2022/04/18 07:14:35;;;;;;;2.23;2.00;;;14.20;66.30;;;;;;5034323;28;20254;-72
2022/04/18 07:17:01;;;;;;;2.30;2.10;;;14.60;66.00;;;;;;5033906;28;20906;-70
2022/04/18 07:19:28;;;;;;;2.30;2.20;;;15.10;64.00;;;;;;5034067;28;20463;-70
2022/04/18 07:21:54;;;;;;;1.80;1.70;;;15.70;61.00;;;;;;5035030;28;20189;-71
2022/04/18 07:24:19;;;;;;;2.20;2.00;;;16.00;59.60;;;;;;5034856;28;20478;-73
2022/04/18 07:26:45;;;;;;;1.90;1.80;;;16.40;58.80;;;;;;5034791;28;20203;-72
2022/04/18 07:29:11;;;;;;;2.30;2.10;;;16.40;58.40;;;;;;5032305;28;20178;-70
2022/04/18 07:31:36;;;;;;;2.80;2.50;;;16.80;57.60;;;;;;5033838;28;20198;-72
2022/04/18 07:34:02;;;;;;;2.60;2.40;;;17.10;57.20;;;;;;5034605;28;20170;-73
2022/04/18 07:36:27;;;;;;;1.70;1.60;;;17.40;57.10;;;;;;5034687;28;20194;-71
2022/04/18 07:38:53;;;;;;;2.27;2.17;;;17.70;56.00;;;;;;5035009;28;20174;-74
2022/04/18 07:41:19;;;;;;;2.33;2.13;;;17.70;56.00;;;;;;5034858;28;20245;-71
2022/04/18 07:43:45;;;;;;;2.13;2.00;;;18.10;56.00;;;;;;5034412;28;20607;-69
2022/04/18 07:46:11;;;;;;;2.20;2.00;;;18.70;55.20;;;;;;5033424;28;20228;-72
2022/04/18 07:48:37;;;;;;;2.30;2.10;;;19.20;53.90;;;;;;5034681;28;20496;-69
2022/04/18 07:53:47;;;;;;;3.17;2.87;;;20.40;53.00;;;;;;5034420;28;20745;-76
2022/04/18 07:56:13;;;;;;;4.70;2.57;;;21.40;51.90;;;;;;5034485;28;20508;-73
2022/04/18 07:58:48;;;;;;;4.83;4.47;;;22.30;51.30;;;;;;5034668;28;20166;-80
2022/04/18 08:01:14;;;;;;;2.97;2.50;;;23.00;49.40;;;;;;5034509;28;20181;-75
2022/04/18 08:03:39;;;;;;;3.03;2.83;;;23.80;48.10;;;;;;5032307;28;20494;-75
2022/04/18 08:06:05;;;;;;;3.03;2.73;;;24.20;46.40;;;;;;5034327;28;20193;-71
2022/04/18 08:08:31;;;;;;;2.73;2.53;;;24.50;45.80;;;;;;5034516;28;20186;-71
2022/04/18 08:10:58;;;;;;;3.40;3.10;;;24.60;45.10;;;;;;5034672;28;20209;-72
2022/04/18 08:13:24;;;;;;;3.00;2.70;;;24.80;44.60;;;;;;5033641;28;20450;-75
2022/04/18 08:15:50;;;;;;;2.60;2.40;;;24.70;44.30;;;;;;5033436;28;20433;-71
2022/04/18 08:18:16;;;;;;;2.87;2.67;;;24.60;44.30;;;;;;5033299;28;20166;-70
2022/04/18 08:20:42;;;;;;;2.40;2.30;;;24.60;44.20;;;;;;5034099;28;20413;-68
2022/04/18 08:23:07;;;;;;;2.67;2.30;;;24.70;43.90;;;;;;5033605;28;20506;-67
2022/04/18 08:25:33;;;;;;;2.40;2.30;;;24.70;43.40;;;;;;5034007;28;20201;-66
2022/04/18 08:27:59;;;;;;;2.70;2.23;;;24.30;43.40;;;;;;5033923;28;20225;-69
2022/04/18 08:30:24;;;;;;;2.97;2.33;;;24.00;43.90;;;;;;5033759;28;20232;-73
2022/04/18 08:32:50;;;;;;;2.63;2.43;;;23.80;43.80;;;;;;5033534;28;20208;-69
2022/04/18 08:35:17;;;;;;;2.90;2.67;;;23.80;44.10;;;;;;5033935;28;20190;-73
2022/04/18 08:37:42;;;;;;;2.40;2.20;;;23.90;44.20;;;;;;5033917;28;20159;-77
2022/04/18 08:40:10;;;;;;;3.70;2.93;;;24.00;44.10;;;;;;5033956;28;20409;-75
2022/04/18 08:42:38;;;;;;;2.50;2.40;;;24.20;43.60;;;;;;5033618;28;20174;-74
2022/04/18 08:45:09;;;;;;;2.60;2.40;;;24.40;43.10;;;;;;5033416;28;20403;-71
2022/04/18 08:53:09;;;;;;;3.20;2.83;;;25.00;43.40;;;;;;5013667;28;20435;-71
2022/04/18 08:55:35;;;;;;;2.70;2.50;;;25.10;42.90;;;;;;5023802;28;20748;-71
2022/04/18 08:58:01;;;;;;;2.37;2.17;;;25.20;42.60;;;;;;5033535;28;20436;-70
2022/04/18 09:00:27;;;;;;;2.70;2.50;;;25.40;42.40;;;;;;5033514;28;20474;-72
2022/04/18 09:02:54;;;;;;;2.80;2.60;;;25.60;42.20;;;;;;5033106;28;20178;-74
2022/04/18 09:05:20;;;;;;;2.40;2.27;;;25.50;42.10;;;;;;5033321;28;20429;-71
2022/04/18 09:08:03;;;;;;;2.90;2.33;;;25.60;41.90;;;;;;5033587;28;20413;-70
2022/04/18 09:10:29;;;;;;;2.70;2.40;;;25.80;41.90;;;;;;5033326;28;20387;-72
2022/04/18 09:13:08;;;;;;;2.73;2.53;;;26.00;41.50;;;;;;5033038;28;20449;-70
2022/04/18 09:15:39;;;;;;;3.23;2.40;;;26.00;41.10;;;;;;5031310;28;20665;-72
2022/04/18 09:18:17;;;;;;;2.50;2.30;;;25.90;41.10;;;;;;5013485;28;20414;-71
2022/04/18 09:20:50;;;;;;;2.50;2.30;;;25.80;40.90;;;;;;5013368;28;20384;-71
2022/04/18 09:23:33;;;;;;;3.90;2.87;;;25.60;39.60;;;;;;5013047;28;20413;-70
2022/04/18 09:26:03;;;;;;;2.50;2.30;;;25.50;40.00;;;;;;5013674;28;20416;-71
2022/04/18 09:28:34;;;;;;;2.43;2.23;;;25.40;40.20;;;;;;5013866;28;20413;-73
2022/04/18 09:31:06;;;;;;;2.80;2.60;;;25.00;40.00;;;;;;5033118;28;20390;-73
2022/04/18 09:33:33;;;;;;;2.17;2.03;;;24.80;40.40;;;;;;5032156;28;20452;-74
2022/04/18 09:36:10;;;;;;;2.67;2.47;;;24.80;41.40;;;;;;5031960;28;20425;-73
2022/04/18 09:38:37;;;;;;;3.00;2.80;;;24.70;40.40;;;;;;5032227;28;20478;-73
2022/04/18 09:41:03;;;;;;;2.30;2.10;;;24.90;41.20;;;;;;5032747;28;20825;-72
2022/04/18 09:43:40;;;;;;;2.80;2.60;;;25.20;39.80;;;;;;5032220;28;20417;-73
2022/04/18 09:46:08;;;;;;;2.37;2.20;;;25.40;40.30;;;;;;5032571;28;20440;-73
2022/04/18 09:48:34;;;;;;;4.13;2.37;;;25.50;40.40;;;;;;5032744;28;20379;-69
2022/04/18 09:51:08;;;;;;;2.23;2.13;;;25.70;39.80;;;;;;5032859;28;20454;-74
2022/04/18 09:53:34;;;;;;;2.23;2.03;;;25.70;40.30;;;;;;5032339;28;20202;-72
2022/04/18 09:56:00;;;;;;;3.10;2.50;;;26.10;40.40;;;;;;5032513;28;20404;-69
2022/04/18 09:58:26;;;;;;;2.60;2.40;;;26.80;39.90;;;;;;5032862;28;20683;-72
2022/04/18 10:00:52;;;;;;;2.93;2.73;;;27.20;39.10;;;;;;5032984;28;20167;-72
2022/04/18 10:03:18;;;;;;;2.57;2.37;;;27.20;37.80;;;;;;5032305;28;20546;-71
2022/04/18 10:05:45;;;;;;;2.20;2.10;;;27.00;37.80;;;;;;5032749;28;20196;-73
2022/04/18 10:08:11;;;;;;;2.60;2.30;;;27.00;38.20;;;;;;5031422;28;20423;-73
2022/04/18 10:10:40;;;;;;;2.47;2.27;;;26.80;38.30;;;;;;5032965;28;20493;-74
2022/04/18 10:13:07;;;;;;;2.30;2.10;;;26.80;38.70;;;;;;5031271;28;20406;-73
2022/04/18 10:15:35;;;;;;;2.23;2.10;;;27.00;38.90;;;;;;5032728;28;20436;-72
2022/04/18 10:18:03;;;;;;;2.00;1.90;;;27.30;37.70;;;;;;5032851;28;20417;-72
2022/04/18 10:20:51;;;;;;;2.27;2.17;;;27.30;37.80;;;;;;5032710;28;20405;-73
2022/04/18 10:23:44;;;;;;;2.83;2.63;;;27.30;37.30;;;;;;5032201;28;20463;-72
2022/04/18 10:26:47;;;;;;;2.40;2.20;;;26.80;38.00;;;;;;5031475;28;20445;-70
2022/04/18 10:29:20;;;;;;;2.50;2.30;;;26.50;38.20;;;;;;5013176;28;20409;-73
2022/04/18 10:31:48;;;;;;;2.77;2.30;;;26.10;38.90;;;;;;5013200;28;20380;-73
2022/04/18 10:34:15;;;;;;;4.23;2.57;;;26.10;38.80;;;;;;5029672;28;20425;-73
2022/04/18 10:36:46;;;;;;;4.63;2.53;;;25.60;39.10;;;;;;5032660;28;20475;-72
2022/04/18 10:39:12;;;;;;;2.57;2.47;;;25.20;39.60;;;;;;5032989;28;20401;-73
2022/04/18 10:41:39;;;;;;;3.90;2.70;;;24.90;39.50;;;;;;5034803;28;20409;-71
2022/04/18 10:44:08;;;;;;;2.20;1.87;;;24.70;40.00;;;;;;5035945;28;20645;-71
2022/04/18 10:46:35;;;;;;;3.00;2.73;;;24.70;39.80;;;;;;5036260;28;20396;-71
2022/04/18 10:49:04;;;;;;;16.07;10.03;;;24.70;40.60;;;;;;5035789;28;20420;-71
2022/04/18 10:51:36;;;;;;;5.53;5.00;;;24.80;40.40;;;;;;5036145;28;20764;-73
2022/04/18 10:54:16;;;;;;;3.77;3.43;;;25.00;40.40;;;;;;5035819;28;20839;-72
2022/04/18 10:56:56;;;;;;;3.00;2.70;;;24.80;40.00;;;;;;5036085;28;20398;-72
2022/04/18 10:59:27;;;;;;;3.97;2.87;;;24.20;40.00;;;;;;5035796;28;20383;-73
2022/04/18 11:01:59;;;;;;;2.60;2.33;;;23.90;40.60;;;;;;5035655;28;20423;-73
2022/04/18 11:04:26;;;;;;;2.47;2.37;;;23.50;41.10;;;;;;5034555;28;20528;-73
2022/04/18 11:07:12;;;;;;;2.30;2.20;;;23.20;41.60;;;;;;5035939;28;20395;-71
2022/04/18 11:09:46;;;;;;;2.70;2.50;;;22.90;41.40;;;;;;5035547;28;20463;-72
2022/04/18 11:12:21;;;;;;;2.10;2.00;;;22.40;41.50;;;;;;5035994;28;20776;-72
2022/04/18 11:14:48;;;;;;;2.10;2.00;;;21.70;41.00;;;;;;5035513;28;20411;-70
2022/04/18 11:17:26;;;;;;;3.20;2.33;;;21.10;43.50;;;;;;5035640;28;20398;-71
2022/04/18 11:19:52;;;;;;;2.40;2.30;;;20.10;45.10;;;;;;5035971;28;20398;-72
2022/04/18 11:22:22;;;;;;;1.80;1.40;;;19.40;46.30;;;;;;5034275;28;20460;-72
2022/04/18 11:24:56;;;;;;;2.30;2.10;;;19.20;43.80;;;;;;5035222;28;20170;-71
2022/04/18 11:27:30;;;;;;;2.07;1.97;;;18.80;44.50;;;;;;5035857;28;20404;-73
2022/04/18 11:29:57;;;;;;;2.40;2.20;;;18.40;45.30;;;;;;5034230;28;20428;-72
2022/04/18 11:32:27;;;;;;;2.10;1.87;;;18.00;45.50;;;;;;5035394;28;20420;-72
2022/04/18 11:34:55;;;;;;;2.60;2.23;;;17.80;45.70;;;;;;5034691;28;20433;-72
2022/04/18 11:37:27;;;;;;;1.70;1.60;;;17.60;47.20;;;;;;5035570;28;20877;-70
2022/04/18 11:39:54;;;;;;;2.60;2.40;;;17.50;48.00;;;;;;5035551;28;20489;-72
2022/04/18 11:42:23;;;;;;;1.70;1.60;;;17.50;46.40;;;;;;5035337;28;20453;-71
2022/04/18 11:44:51;;;;;;;2.60;1.93;;;17.30;46.90;;;;;;5034768;28;20410;-71
2022/04/18 11:47:41;;;;;;;2.63;2.37;;;17.10;47.20;;;;;;5034977;28;20423;-69
2022/04/18 11:50:07;;;;;;;4.93;3.00;;;17.10;47.30;;;;;;5035488;28;20425;-70
2022/04/18 11:52:38;;;;;;;2.90;1.97;;;17.00;47.20;;;;;;5033942;28;20417;-70
2022/04/18 11:55:11;;;;;;;2.37;2.17;;;17.00;47.40;;;;;;5034625;28;20435;-71
2022/04/18 11:57:38;;;;;;;2.43;1.87;;;16.90;47.60;;;;;;5035265;28;20413;-71
2022/04/18 12:00:07;;;;;;;2.00;1.90;;;16.90;47.60;;;;;;5034902;28;20486;-72
2022/04/18 12:08:09;;;;;;;1.80;1.70;;;16.90;48.90;;;;;;5035135;28;20404;-70
2022/04/18 12:10:37;;;;;;;2.70;1.90;;;16.90;49.00;;;;;;5035229;28;20400;-72
2022/04/18 12:13:13;;;;;;;1.70;1.60;;;17.00;49.30;;;;;;5034750;28;20376;-72
2022/04/18 12:15:41;;;;;;;8.63;7.50;;;17.10;48.20;;;;;;5034476;28;20411;-70
2022/04/18 12:18:13;;;;;;;3.20;2.80;;;17.20;48.50;;;;;;5033769;28;20440;-70
2022/04/18 12:20:47;;;;;;;2.00;1.90;;;17.30;48.20;;;;;;5033209;28;21032;-71
2022/04/18 12:23:20;;;;;;;2.00;1.60;;;17.30;47.30;;;;;;5034137;28;20464;-71
2022/04/18 12:25:50;;;;;;;2.30;2.10;;;17.20;47.50;;;;;;5034599;28;20436;-69
2022/04/18 12:28:20;;;;;;;3.07;2.43;;;17.10;48.00;;;;;;5033228;28;20451;-72
2022/04/18 12:30:46;;;;;;;2.70;2.50;;;17.00;47.90;;;;;;5033167;28;20758;-70
2022/04/18 12:33:25;;;;;;;2.77;2.57;;;17.00;47.50;;;;;;5034155;28;20413;-71
2022/04/18 12:35:52;;;;;;;3.07;2.23;;;17.00;48.00;;;;;;5034766;28;20424;-70
2022/04/18 12:38:29;;;;;;;2.43;2.13;;;16.90;47.80;;;;;;5034565;28;20409;-71
2022/04/18 12:40:58;;;;;;;2.30;1.50;;;17.00;47.70;;;;;;5033840;28;20428;-70
2022/04/18 12:43:31;;;;;;;1.70;1.60;;;17.10;48.40;;;;;;5033917;28;20482;-70
2022/04/18 12:46:08;;;;;;;1.67;1.50;;;17.10;47.60;;;;;;5034241;28;20428;-70
2022/04/18 12:48:36;;;;;;;1.53;1.43;;;17.10;47.50;;;;;;5034333;28;20408;-71
2022/04/18 12:51:03;;;;;;;2.00;1.83;;;17.10;47.40;;;;;;5034244;28;20746;-73
2022/04/18 12:53:49;;;;;;;2.60;2.10;;;17.10;47.60;;;;;;5033587;28;20423;-72
2022/04/18 12:56:21;;;;;;;1.73;1.50;;;17.00;47.80;;;;;;5032634;28;20952;-71
2022/04/18 12:59:06;;;;;;;2.40;1.43;;;17.00;47.60;;;;;;5034161;28;20376;-72
2022/04/18 13:01:36;;;;;;;1.50;1.40;;;17.10;48.40;;;;;;5033986;28;20412;-71
2022/04/18 13:04:03;;;;;;;1.60;1.50;;;17.20;49.30;;;;;;5033131;28;20428;-69
2022/04/18 13:06:32;;;;;;;3.30;1.70;;;17.30;48.80;;;;;;5033876;28;20776;-71
2022/04/18 13:09:07;;;;;;;4.37;2.80;;;17.40;47.50;;;;;;5033336;28;20540;-72
2022/04/18 13:11:42;;;;;;;4.57;1.97;;;17.40;47.60;;;;;;5033986;28;20857;-70
2022/04/18 13:14:10;;;;;;;1.70;1.60;;;17.40;47.20;;;;;;5033357;28;20402;-70
2022/04/18 13:16:36;;;;;;;2.00;1.90;;;17.30;47.60;;;;;;5033563;28;20397;-71